Time;durP1;ratioP1;P1;durP2;ratioP2;P2;SDS_P1;SDS_P2;PMS_P1;PMS_P2;Temp;Humidity;BMP_temperature;BMP_pressure;BME280_temperature;BME280_humidity;BME280_pressure;Samples;Min_cycle;Max_cycle;Signal;HPM_P1;HPM_P2
2022/03/14 00:00:00;;;;;;;1.9;1.8;;;;;;;12.2;100.0;101390;;;;
2022/03/14 00:01:00;;;;;;;1.9;1.8;;;;;;;12.3;100.0;101380;;;;
2022/03/14 00:02:01;;;;;;;1.9;1.8;;;;;;;12.3;100.0;101380;;;;
2022/03/14 00:03:02;;;;;;;1.9;1.8;;;;;;;12.2;100.0;101380;;;;
2022/03/14 00:04:01;;;;;;;1.9;1.8;;;;;;;12.2;100.0;101380;;;;
2022/03/14 00:05:00;;;;;;;1.9;1.8;;;;;;;12.2;100.0;101380;;;;
2022/03/14 00:06:01;;;;;;;1.9;1.8;;;;;;;12.2;100.0;101380;;;;
2022/03/14 00:07:00;;;;;;;1.9;1.8;;;;;;;12.3;100.0;101390;;;;
2022/03/14 00:08:01;;;;;;;1.9;1.8;;;;;;;12.3;100.0;101390;;;;
2022/03/14 00:09:06;;;;;;;1.9;1.8;;;;;;;12.3;100.0;101390;;;;
2022/03/14 00:10:00;;;;;;;1.9;1.8;;;;;;;12.3;100.0;101390;;;;
2022/03/14 00:11:01;;;;;;;2.0;1.9;;;;;;;12.4;100.0;101390;;;;
2022/03/14 00:12:00;;;;;;;2.0;1.9;;;;;;;12.4;100.0;101390;;;;
2022/03/14 00:13:00;;;;;;;2.0;1.9;;;;;;;12.4;100.0;101400;;;;
2022/03/14 00:14:01;;;;;;;2.0;1.9;;;;;;;12.4;100.0;101400;;;;
2022/03/14 00:15:03;;;;;;;2.0;1.9;;;;;;;12.3;100.0;101400;;;;
2022/03/14 00:16:00;;;;;;;2.0;1.9;;;;;;;12.3;100.0;101400;;;;
2022/03/14 00:17:04;;;;;;;2.0;1.9;;;;;;;12.3;100.0;101410;;;;
2022/03/14 00:18:01;;;;;;;2.0;1.9;;;;;;;12.3;100.0;101410;;;;
2022/03/14 00:19:00;;;;;;;2.0;1.9;;;;;;;12.1;100.0;101410;;;;
2022/03/14 00:20:08;;;;;;;2.0;1.9;;;;;;;12.1;100.0;101410;;;;
2022/03/14 00:21:02;;;;;;;2.0;1.9;;;;;;;12.1;100.0;101410;;;;
2022/03/14 00:22:00;;;;;;;2.0;1.9;;;;;;;12.1;100.0;101410;;;;
2022/03/14 00:23:00;;;;;;;2.0;1.9;;;;;;;12.0;100.0;101410;;;;
2022/03/14 00:24:00;;;;;;;2.0;1.9;;;;;;;12.0;100.0;101410;;;;
2022/03/14 00:25:00;;;;;;;2.0;1.9;;;;;;;11.9;100.0;101410;;;;
2022/03/14 00:26:00;;;;;;;2.0;1.9;;;;;;;11.9;100.0;101410;;;;
2022/03/14 00:27:00;;;;;;;2.0;1.9;;;;;;;12.0;100.0;101410;;;;
2022/03/14 00:28:00;;;;;;;2.0;1.9;;;;;;;12.0;100.0;101410;;;;
2022/03/14 00:29:00;;;;;;;2.0;1.9;;;;;;;12.0;100.0;101410;;;;
2022/03/14 00:30:00;;;;;;;2.0;1.9;;;;;;;12.0;100.0;101410;;;;
2022/03/14 00:31:00;;;;;;;2.3;2.2;;;;;;;11.9;100.0;101420;;;;
2022/03/14 00:32:00;;;;;;;2.3;2.2;;;;;;;11.9;100.0;101420;;;;
2022/03/14 00:33:00;;;;;;;2.3;2.2;;;;;;;12.0;100.0;101420;;;;
2022/03/14 00:34:00;;;;;;;2.3;2.2;;;;;;;12.0;100.0;101420;;;;
2022/03/14 00:35:00;;;;;;;2.3;2.2;;;;;;;12.0;100.0;101420;;;;
2022/03/14 00:36:00;;;;;;;2.3;2.2;;;;;;;12.0;100.0;101420;;;;
2022/03/14 00:37:00;;;;;;;2.3;2.2;;;;;;;12.1;100.0;101420;;;;
2022/03/14 00:38:00;;;;;;;2.3;2.2;;;;;;;12.1;100.0;101420;;;;
2022/03/14 00:39:00;;;;;;;2.3;2.2;;;;;;;12.0;100.0;101420;;;;
2022/03/14 00:40:01;;;;;;;2.3;2.2;;;;;;;12.0;100.0;101420;;;;
2022/03/14 00:41:00;;;;;;;2.3;2.2;;;;;;;12.0;100.0;101430;;;;
2022/03/14 00:42:00;;;;;;;2.3;2.2;;;;;;;12.0;100.0;101430;;;;
2022/03/14 00:43:02;;;;;;;2.3;2.2;;;;;;;12.0;100.0;101430;;;;
2022/03/14 00:44:00;;;;;;;2.3;2.2;;;;;;;12.0;100.0;101430;;;;
2022/03/14 00:45:00;;;;;;;2.3;2.2;;;;;;;11.9;100.0;101430;;;;
2022/03/14 00:46:00;;;;;;;2.3;2.2;;;;;;;11.9;100.0;101430;;;;
2022/03/14 00:47:00;;;;;;;2.3;2.2;;;;;;;12.1;100.0;101430;;;;
2022/03/14 00:48:00;;;;;;;2.3;2.2;;;;;;;12.1;100.0;101430;;;;
2022/03/14 00:49:00;;;;;;;2.3;2.2;;;;;;;12.1;100.0;101430;;;;
2022/03/14 00:50:00;;;;;;;2.3;2.2;;;;;;;12.1;100.0;101430;;;;
2022/03/14 00:51:01;;;;;;;2.8;2.6;;;;;;;12.2;100.0;101430;;;;
2022/03/14 00:52:00;;;;;;;2.8;2.6;;;;;;;12.2;100.0;101430;;;;
2022/03/14 00:53:00;;;;;;;2.8;2.6;;;;;;;12.1;100.0;101440;;;;
2022/03/14 00:54:00;;;;;;;2.8;2.6;;;;;;;12.1;100.0;101440;;;;
2022/03/14 00:55:00;;;;;;;2.8;2.6;;;;;;;12.0;100.0;101440;;;;
2022/03/14 00:56:00;;;;;;;2.8;2.6;;;;;;;12.0;100.0;101440;;;;
2022/03/14 00:57:00;;;;;;;2.8;2.6;;;;;;;11.8;100.0;101440;;;;
2022/03/14 00:58:00;;;;;;;2.8;2.6;;;;;;;11.8;100.0;101440;;;;
2022/03/14 00:59:00;;;;;;;2.8;2.6;;;;;;;11.8;100.0;101440;;;;
2022/03/14 01:00:00;;;;;;;2.8;2.6;;;;;;;11.8;100.0;101440;;;;
2022/03/14 01:01:01;;;;;;;2.8;2.6;;;;;;;12.0;100.0;101450;;;;
2022/03/14 01:02:00;;;;;;;2.8;2.6;;;;;;;12.0;100.0;101450;;;;
2022/03/14 01:03:04;;;;;;;2.8;2.6;;;;;;;11.9;100.0;101450;;;;
2022/03/14 01:04:00;;;;;;;2.8;2.6;;;;;;;11.9;100.0;101450;;;;
2022/03/14 01:05:00;;;;;;;2.8;2.6;;;;;;;11.9;100.0;101450;;;;
2022/03/14 01:06:00;;;;;;;2.8;2.6;;;;;;;11.9;100.0;101450;;;;
2022/03/14 01:07:02;;;;;;;2.8;2.6;;;;;;;11.9;100.0;101450;;;;
2022/03/14 01:08:00;;;;;;;2.8;2.6;;;;;;;11.9;100.0;101450;;;;
2022/03/14 01:09:00;;;;;;;2.8;2.6;;;;;;;11.9;100.0;101460;;;;
2022/03/14 01:10:01;;;;;;;2.8;2.6;;;;;;;11.9;100.0;101460;;;;
2022/03/14 01:11:00;;;;;;;2.8;2.6;;;;;;;12.0;100.0;101460;;;;
2022/03/14 01:12:00;;;;;;;2.8;2.6;;;;;;;12.0;100.0;101460;;;;
2022/03/14 01:13:02;;;;;;;2.8;2.6;;;;;;;12.1;100.0;101460;;;;
2022/03/14 01:14:00;;;;;;;2.8;2.6;;;;;;;12.1;100.0;101460;;;;
2022/03/14 01:15:00;;;;;;;2.8;2.6;;;;;;;11.9;100.0;101470;;;;
2022/03/14 01:16:00;;;;;;;2.8;2.6;;;;;;;11.9;100.0;101470;;;;
2022/03/14 01:17:00;;;;;;;2.8;2.6;;;;;;;11.9;100.0;101470;;;;
2022/03/14 01:18:00;;;;;;;2.8;2.6;;;;;;;11.9;100.0;101470;;;;
2022/03/14 01:19:00;;;;;;;2.8;2.6;;;;;;;11.9;100.0;101470;;;;
2022/03/14 01:20:00;;;;;;;2.8;2.6;;;;;;;11.9;100.0;101470;;;;
2022/03/14 01:21:00;;;;;;;2.8;2.6;;;;;;;11.6;100.0;101470;;;;
2022/03/14 01:22:00;;;;;;;2.8;2.6;;;;;;;11.6;100.0;101470;;;;
2022/03/14 01:23:00;;;;;;;2.8;2.6;;;;;;;11.8;100.0;101470;;;;
2022/03/14 01:24:01;;;;;;;2.8;2.6;;;;;;;11.8;100.0;101470;;;;
2022/03/14 01:25:00;;;;;;;2.8;2.6;;;;;;;11.7;100.0;101480;;;;
2022/03/14 01:26:00;;;;;;;2.8;2.6;;;;;;;11.7;100.0;101480;;;;
2022/03/14 01:27:00;;;;;;;2.8;2.6;;;;;;;11.8;100.0;101470;;;;
2022/03/14 01:28:01;;;;;;;2.8;2.6;;;;;;;11.8;100.0;101470;;;;
2022/03/14 01:29:02;;;;;;;2.8;2.6;;;;;;;11.8;100.0;101480;;;;
2022/03/14 01:30:00;;;;;;;2.8;2.6;;;;;;;11.8;100.0;101480;;;;
2022/03/14 01:31:00;;;;;;;2.9;2.7;;;;;;;11.8;100.0;101480;;;;
2022/03/14 01:32:02;;;;;;;2.9;2.7;;;;;;;11.8;100.0;101480;;;;
2022/03/14 01:33:00;;;;;;;2.9;2.7;;;;;;;11.9;100.0;101480;;;;
2022/03/14 01:34:00;;;;;;;2.9;2.7;;;;;;;11.9;100.0;101480;;;;
2022/03/14 01:35:00;;;;;;;2.9;2.7;;;;;;;11.9;100.0;101480;;;;
2022/03/14 01:36:00;;;;;;;2.9;2.7;;;;;;;11.9;100.0;101480;;;;
2022/03/14 01:37:00;;;;;;;2.9;2.7;;;;;;;11.9;100.0;101480;;;;
2022/03/14 01:38:00;;;;;;;2.9;2.7;;;;;;;11.9;100.0;101480;;;;
2022/03/14 01:39:00;;;;;;;2.9;2.7;;;;;;;12.0;100.0;101480;;;;
2022/03/14 01:40:00;;;;;;;2.9;2.7;;;;;;;12.0;100.0;101480;;;;
2022/03/14 01:41:00;;;;;;;2.9;2.7;;;;;;;12.1;100.0;101490;;;;
2022/03/14 01:42:00;;;;;;;2.9;2.7;;;;;;;12.1;100.0;101490;;;;
2022/03/14 01:43:00;;;;;;;2.9;2.7;;;;;;;11.9;100.0;101490;;;;
2022/03/14 01:44:01;;;;;;;2.9;2.7;;;;;;;11.9;100.0;101490;;;;
2022/03/14 01:45:01;;;;;;;2.9;2.7;;;;;;;11.7;100.0;101490;;;;
2022/03/14 01:46:00;;;;;;;2.9;2.7;;;;;;;11.7;100.0;101490;;;;
2022/03/14 01:47:00;;;;;;;2.9;2.7;;;;;;;11.7;100.0;101500;;;;
2022/03/14 01:48:00;;;;;;;2.9;2.7;;;;;;;11.7;100.0;101500;;;;
2022/03/14 01:49:00;;;;;;;2.9;2.7;;;;;;;11.6;100.0;101490;;;;
2022/03/14 01:50:00;;;;;;;2.9;2.7;;;;;;;11.6;100.0;101490;;;;
2022/03/14 01:51:01;;;;;;;3.0;2.7;;;;;;;11.6;100.0;101490;;;;
2022/03/14 01:52:00;;;;;;;3.0;2.7;;;;;;;11.6;100.0;101490;;;;
2022/03/14 01:53:00;;;;;;;3.0;2.7;;;;;;;11.6;100.0;101500;;;;
2022/03/14 01:54:00;;;;;;;3.0;2.7;;;;;;;11.6;100.0;101500;;;;
2022/03/14 01:55:00;;;;;;;3.0;2.7;;;;;;;11.7;100.0;101490;;;;
2022/03/14 01:56:00;;;;;;;3.0;2.7;;;;;;;11.7;100.0;101490;;;;
2022/03/14 01:57:00;;;;;;;3.0;2.7;;;;;;;11.8;100.0;101490;;;;
2022/03/14 01:58:03;;;;;;;3.0;2.7;;;;;;;11.8;100.0;101490;;;;
2022/03/14 01:59:00;;;;;;;3.0;2.7;;;;;;;11.7;100.0;101500;;;;
2022/03/14 02:00:00;;;;;;;3.0;2.7;;;;;;;11.7;100.0;101500;;;;
2022/03/14 02:01:00;;;;;;;3.0;2.7;;;;;;;11.8;100.0;101500;;;;
2022/03/14 02:02:00;;;;;;;3.0;2.7;;;;;;;11.8;100.0;101500;;;;
2022/03/14 02:03:00;;;;;;;3.0;2.7;;;;;;;11.9;100.0;101500;;;;
2022/03/14 02:04:00;;;;;;;3.0;2.7;;;;;;;11.9;100.0;101500;;;;
2022/03/14 02:05:00;;;;;;;3.0;2.7;;;;;;;11.8;100.0;101500;;;;
2022/03/14 02:06:00;;;;;;;3.0;2.7;;;;;;;11.8;100.0;101500;;;;
2022/03/14 02:07:00;;;;;;;3.0;2.7;;;;;;;11.7;100.0;101510;;;;
2022/03/14 02:08:00;;;;;;;3.0;2.7;;;;;;;11.7;100.0;101510;;;;
2022/03/14 02:09:00;;;;;;;3.0;2.7;;;;;;;11.8;100.0;101500;;;;
2022/03/14 02:10:01;;;;;;;3.0;2.7;;;;;;;11.8;100.0;101500;;;;
2022/03/14 02:11:00;;;;;;;3.1;2.8;;;;;;;11.9;100.0;101500;;;;
2022/03/14 02:12:00;;;;;;;3.1;2.8;;;;;;;11.9;100.0;101500;;;;
2022/03/14 02:13:05;;;;;;;3.1;2.8;;;;;;;11.8;100.0;101500;;;;
2022/03/14 02:14:00;;;;;;;3.1;2.8;;;;;;;11.8;100.0;101500;;;;
2022/03/14 02:15:00;;;;;;;3.1;2.8;;;;;;;11.7;100.0;101500;;;;
2022/03/14 02:16:00;;;;;;;3.1;2.8;;;;;;;11.7;100.0;101500;;;;
2022/03/14 02:17:00;;;;;;;3.1;2.8;;;;;;;11.7;100.0;101500;;;;
2022/03/14 02:18:00;;;;;;;3.1;2.8;;;;;;;11.7;100.0;101500;;;;
2022/03/14 02:19:01;;;;;;;3.1;2.8;;;;;;;11.6;100.0;101510;;;;
2022/03/14 02:20:00;;;;;;;3.1;2.8;;;;;;;11.6;100.0;101510;;;;
2022/03/14 02:21:00;;;;;;;3.1;2.8;;;;;;;11.6;100.0;101510;;;;
2022/03/14 02:22:01;;;;;;;3.1;2.8;;;;;;;11.6;100.0;101510;;;;
2022/03/14 02:23:00;;;;;;;3.1;2.8;;;;;;;11.7;100.0;101510;;;;
2022/03/14 02:24:01;;;;;;;3.1;2.8;;;;;;;11.7;100.0;101510;;;;
2022/03/14 02:25:01;;;;;;;3.1;2.8;;;;;;;11.8;100.0;101510;;;;
2022/03/14 02:26:00;;;;;;;3.1;2.8;;;;;;;11.8;100.0;101510;;;;
2022/03/14 02:27:00;;;;;;;3.1;2.8;;;;;;;11.8;100.0;101510;;;;
2022/03/14 02:28:00;;;;;;;3.1;2.8;;;;;;;11.8;100.0;101510;;;;
2022/03/14 02:29:00;;;;;;;3.1;2.8;;;;;;;11.7;100.0;101520;;;;
2022/03/14 02:30:00;;;;;;;3.1;2.8;;;;;;;11.7;100.0;101520;;;;
2022/03/14 02:31:02;;;;;;;3.3;3.0;;;;;;;11.8;100.0;101520;;;;
2022/03/14 02:32:00;;;;;;;3.3;3.0;;;;;;;11.8;100.0;101520;;;;
2022/03/14 02:33:01;;;;;;;3.3;3.0;;;;;;;11.7;100.0;101520;;;;
2022/03/14 02:34:00;;;;;;;3.3;3.0;;;;;;;11.7;100.0;101520;;;;
2022/03/14 02:35:00;;;;;;;3.3;3.0;;;;;;;11.8;100.0;101520;;;;
2022/03/14 02:36:00;;;;;;;3.3;3.0;;;;;;;11.8;100.0;101520;;;;
2022/03/14 02:37:02;;;;;;;3.3;3.0;;;;;;;11.8;100.0;101530;;;;
2022/03/14 02:38:00;;;;;;;3.3;3.0;;;;;;;11.8;100.0;101530;;;;
2022/03/14 02:39:00;;;;;;;3.3;3.0;;;;;;;11.8;100.0;101530;;;;
2022/03/14 02:40:00;;;;;;;3.3;3.0;;;;;;;11.8;100.0;101530;;;;
2022/03/14 02:41:00;;;;;;;3.3;3.0;;;;;;;11.8;100.0;101530;;;;
2022/03/14 02:42:01;;;;;;;3.3;3.0;;;;;;;11.8;100.0;101530;;;;
2022/03/14 02:43:00;;;;;;;3.3;3.0;;;;;;;11.8;100.0;101530;;;;
2022/03/14 02:44:01;;;;;;;3.3;3.0;;;;;;;11.8;100.0;101530;;;;
2022/03/14 02:45:00;;;;;;;3.3;3.0;;;;;;;11.8;100.0;101530;;;;
2022/03/14 02:46:00;;;;;;;3.3;3.0;;;;;;;11.8;100.0;101530;;;;
2022/03/14 02:47:04;;;;;;;3.3;3.0;;;;;;;11.7;100.0;101530;;;;
2022/03/14 02:48:00;;;;;;;3.3;3.0;;;;;;;11.7;100.0;101530;;;;
2022/03/14 02:49:01;;;;;;;3.3;3.0;;;;;;;11.6;100.0;101530;;;;
2022/03/14 02:50:01;;;;;;;3.3;3.0;;;;;;;11.6;100.0;101530;;;;
2022/03/14 02:51:00;;;;;;;3.7;3.4;;;;;;;11.7;100.0;101530;;;;
2022/03/14 02:52:00;;;;;;;3.7;3.4;;;;;;;11.7;100.0;101530;;;;
2022/03/14 02:53:00;;;;;;;3.7;3.4;;;;;;;11.7;100.0;101540;;;;
2022/03/14 02:54:01;;;;;;;3.7;3.4;;;;;;;11.7;100.0;101540;;;;
2022/03/14 02:55:00;;;;;;;3.7;3.4;;;;;;;11.8;100.0;101540;;;;
2022/03/14 02:56:00;;;;;;;3.7;3.4;;;;;;;11.8;100.0;101540;;;;
2022/03/14 02:57:00;;;;;;;3.7;3.4;;;;;;;11.7;100.0;101540;;;;
2022/03/14 02:58:00;;;;;;;3.7;3.4;;;;;;;11.7;100.0;101540;;;;
2022/03/14 02:59:00;;;;;;;3.7;3.4;;;;;;;11.7;100.0;101540;;;;
2022/03/14 03:00:00;;;;;;;3.7;3.4;;;;;;;11.7;100.0;101540;;;;
2022/03/14 03:01:00;;;;;;;3.7;3.4;;;;;;;11.7;100.0;101540;;;;
2022/03/14 03:02:00;;;;;;;3.7;3.4;;;;;;;11.7;100.0;101540;;;;
2022/03/14 03:03:00;;;;;;;3.7;3.4;;;;;;;11.7;100.0;101540;;;;
2022/03/14 03:04:00;;;;;;;3.7;3.4;;;;;;;11.7;100.0;101540;;;;
2022/03/14 03:05:01;;;;;;;3.7;3.4;;;;;;;11.7;100.0;101550;;;;
2022/03/14 03:06:00;;;;;;;3.7;3.4;;;;;;;11.7;100.0;101550;;;;
2022/03/14 03:07:00;;;;;;;3.7;3.4;;;;;;;11.6;100.0;101550;;;;
2022/03/14 03:08:00;;;;;;;3.7;3.4;;;;;;;11.6;100.0;101550;;;;
2022/03/14 03:09:02;;;;;;;3.7;3.4;;;;;;;11.6;100.0;101550;;;;
2022/03/14 03:10:01;;;;;;;3.7;3.4;;;;;;;11.6;100.0;101550;;;;
2022/03/14 03:11:00;;;;;;;3.2;3.0;;;;;;;11.6;100.0;101550;;;;
2022/03/14 03:12:02;;;;;;;3.2;3.0;;;;;;;11.6;100.0;101550;;;;
2022/03/14 03:13:00;;;;;;;3.2;3.0;;;;;;;11.7;100.0;101550;;;;
2022/03/14 03:14:00;;;;;;;3.2;3.0;;;;;;;11.7;100.0;101550;;;;
2022/03/14 03:15:00;;;;;;;3.2;3.0;;;;;;;11.6;100.0;101560;;;;
2022/03/14 03:16:00;;;;;;;3.2;3.0;;;;;;;11.6;100.0;101560;;;;
2022/03/14 03:17:00;;;;;;;3.2;3.0;;;;;;;11.5;100.0;101550;;;;
2022/03/14 03:18:00;;;;;;;3.2;3.0;;;;;;;11.5;100.0;101550;;;;
2022/03/14 03:19:00;;;;;;;3.2;3.0;;;;;;;11.6;100.0;101560;;;;
2022/03/14 03:20:00;;;;;;;3.2;3.0;;;;;;;11.6;100.0;101560;;;;
2022/03/14 03:21:00;;;;;;;3.2;3.0;;;;;;;11.5;100.0;101570;;;;
2022/03/14 03:22:00;;;;;;;3.2;3.0;;;;;;;11.5;100.0;101570;;;;
2022/03/14 03:23:00;;;;;;;3.2;3.0;;;;;;;11.6;100.0;101570;;;;
2022/03/14 03:24:00;;;;;;;3.2;3.0;;;;;;;11.6;100.0;101570;;;;
2022/03/14 03:25:00;;;;;;;3.2;3.0;;;;;;;11.5;100.0;101580;;;;
2022/03/14 03:26:00;;;;;;;3.2;3.0;;;;;;;11.5;100.0;101580;;;;
2022/03/14 03:27:00;;;;;;;3.2;3.0;;;;;;;11.5;100.0;101580;;;;
2022/03/14 03:28:00;;;;;;;3.2;3.0;;;;;;;11.5;100.0;101580;;;;
2022/03/14 03:29:00;;;;;;;3.2;3.0;;;;;;;11.5;100.0;101590;;;;
2022/03/14 03:30:00;;;;;;;3.2;3.0;;;;;;;11.5;100.0;101590;;;;
2022/03/14 03:31:00;;;;;;;4.0;3.6;;;;;;;11.6;100.0;101590;;;;
2022/03/14 03:32:00;;;;;;;4.0;3.6;;;;;;;11.6;100.0;101590;;;;
2022/03/14 03:33:00;;;;;;;4.0;3.6;;;;;;;11.5;100.0;101600;;;;
2022/03/14 03:34:00;;;;;;;4.0;3.6;;;;;;;11.5;100.0;101600;;;;
2022/03/14 03:35:00;;;;;;;4.0;3.6;;;;;;;11.5;100.0;101610;;;;
2022/03/14 03:36:00;;;;;;;4.0;3.6;;;;;;;11.5;100.0;101610;;;;
2022/03/14 03:37:00;;;;;;;4.0;3.6;;;;;;;11.4;100.0;101610;;;;
2022/03/14 03:38:01;;;;;;;4.0;3.6;;;;;;;11.4;100.0;101610;;;;
2022/03/14 03:39:00;;;;;;;4.0;3.6;;;;;;;11.5;100.0;101610;;;;
2022/03/14 03:40:00;;;;;;;4.0;3.6;;;;;;;11.5;100.0;101610;;;;
2022/03/14 03:41:00;;;;;;;4.0;3.6;;;;;;;11.4;100.0;101620;;;;
2022/03/14 03:42:00;;;;;;;4.0;3.6;;;;;;;11.4;100.0;101620;;;;
2022/03/14 03:43:00;;;;;;;4.0;3.6;;;;;;;11.4;100.0;101620;;;;
2022/03/14 03:44:00;;;;;;;4.0;3.6;;;;;;;11.4;100.0;101620;;;;
2022/03/14 03:45:00;;;;;;;4.0;3.6;;;;;;;11.4;100.0;101630;;;;
2022/03/14 03:46:00;;;;;;;4.0;3.6;;;;;;;11.4;100.0;101630;;;;
2022/03/14 03:47:00;;;;;;;4.0;3.6;;;;;;;11.3;100.0;101630;;;;
2022/03/14 03:48:00;;;;;;;4.0;3.6;;;;;;;11.3;100.0;101630;;;;
2022/03/14 03:49:00;;;;;;;4.0;3.6;;;;;;;11.3;100.0;101630;;;;
2022/03/14 03:50:00;;;;;;;4.0;3.6;;;;;;;11.3;100.0;101630;;;;
2022/03/14 03:51:01;;;;;;;4.0;3.7;;;;;;;11.2;100.0;101640;;;;
2022/03/14 03:52:00;;;;;;;4.0;3.7;;;;;;;11.2;100.0;101640;;;;
2022/03/14 03:53:00;;;;;;;4.0;3.7;;;;;;;11.1;100.0;101640;;;;
2022/03/14 03:54:00;;;;;;;4.0;3.7;;;;;;;11.1;100.0;101640;;;;
2022/03/14 03:55:00;;;;;;;4.0;3.7;;;;;;;11.1;100.0;101650;;;;
2022/03/14 03:56:00;;;;;;;4.0;3.7;;;;;;;11.1;100.0;101650;;;;
2022/03/14 03:57:00;;;;;;;4.0;3.7;;;;;;;11.1;100.0;101650;;;;
2022/03/14 03:58:00;;;;;;;4.0;3.7;;;;;;;11.1;100.0;101650;;;;
2022/03/14 03:59:00;;;;;;;4.0;3.7;;;;;;;11.2;100.0;101660;;;;
2022/03/14 04:00:00;;;;;;;4.0;3.7;;;;;;;11.2;100.0;101660;;;;
2022/03/14 04:01:00;;;;;;;4.0;3.7;;;;;;;11.1;100.0;101650;;;;
2022/03/14 04:02:02;;;;;;;4.0;3.7;;;;;;;11.1;100.0;101650;;;;
2022/03/14 04:03:00;;;;;;;4.0;3.7;;;;;;;11.1;100.0;101660;;;;
2022/03/14 04:04:01;;;;;;;4.0;3.7;;;;;;;11.1;100.0;101660;;;;
2022/03/14 04:05:00;;;;;;;4.0;3.7;;;;;;;11.0;100.0;101660;;;;
2022/03/14 04:06:00;;;;;;;4.0;3.7;;;;;;;11.0;100.0;101660;;;;
2022/03/14 04:07:00;;;;;;;4.0;3.7;;;;;;;11.1;100.0;101670;;;;
2022/03/14 04:08:01;;;;;;;4.0;3.7;;;;;;;11.1;100.0;101670;;;;
2022/03/14 04:09:01;;;;;;;4.0;3.7;;;;;;;11.0;100.0;101680;;;;
2022/03/14 04:10:00;;;;;;;3.8;3.5;;;;;;;11.0;100.0;101680;;;;
2022/03/14 04:11:03;;;;;;;3.8;3.5;;;;;;;11.1;100.0;101680;;;;
2022/03/14 04:12:04;;;;;;;3.8;3.5;;;;;;;11.1;100.0;101680;;;;
2022/03/14 04:13:02;;;;;;;3.8;3.5;;;;;;;11.1;100.0;101690;;;;
2022/03/14 04:14:00;;;;;;;3.8;3.5;;;;;;;11.1;100.0;101690;;;;
2022/03/14 04:15:04;;;;;;;3.8;3.5;;;;;;;11.0;100.0;101680;;;;
2022/03/14 04:16:01;;;;;;;3.8;3.5;;;;;;;11.0;100.0;101680;;;;
2022/03/14 04:17:00;;;;;;;3.8;3.5;;;;;;;11.0;100.0;101690;;;;
2022/03/14 04:18:02;;;;;;;3.8;3.5;;;;;;;11.0;100.0;101690;;;;
2022/03/14 04:19:00;;;;;;;3.8;3.5;;;;;;;11.0;100.0;101680;;;;
2022/03/14 04:20:00;;;;;;;3.8;3.5;;;;;;;11.0;100.0;101680;;;;
2022/03/14 04:21:00;;;;;;;3.8;3.5;;;;;;;11.0;100.0;101690;;;;
2022/03/14 04:22:00;;;;;;;3.8;3.5;;;;;;;11.0;100.0;101690;;;;
2022/03/14 04:23:00;;;;;;;3.8;3.5;;;;;;;11.0;100.0;101690;;;;
2022/03/14 04:24:03;;;;;;;3.8;3.5;;;;;;;11.0;100.0;101690;;;;
2022/03/14 04:25:00;;;;;;;3.8;3.5;;;;;;;10.9;100.0;101700;;;;
2022/03/14 04:26:00;;;;;;;3.8;3.5;;;;;;;10.9;100.0;101700;;;;
2022/03/14 04:27:00;;;;;;;3.8;3.5;;;;;;;10.9;100.0;101710;;;;
2022/03/14 04:28:00;;;;;;;3.8;3.5;;;;;;;10.9;100.0;101710;;;;
2022/03/14 04:29:00;;;;;;;3.8;3.5;;;;;;;10.7;100.0;101710;;;;
2022/03/14 04:30:00;;;;;;;5.0;4.6;;;;;;;10.7;100.0;101710;;;;
2022/03/14 04:31:00;;;;;;;5.0;4.6;;;;;;;10.8;100.0;101710;;;;
2022/03/14 04:32:01;;;;;;;5.0;4.6;;;;;;;10.8;100.0;101710;;;;
2022/03/14 04:33:00;;;;;;;5.0;4.6;;;;;;;10.9;100.0;101720;;;;
2022/03/14 04:34:00;;;;;;;5.0;4.6;;;;;;;10.9;100.0;101720;;;;
2022/03/14 04:35:00;;;;;;;5.0;4.6;;;;;;;10.9;100.0;101720;;;;
2022/03/14 04:36:00;;;;;;;5.0;4.6;;;;;;;10.9;100.0;101720;;;;
2022/03/14 04:37:00;;;;;;;5.0;4.6;;;;;;;11.0;100.0;101720;;;;
2022/03/14 04:38:00;;;;;;;5.0;4.6;;;;;;;11.0;100.0;101720;;;;
2022/03/14 04:39:00;;;;;;;5.0;4.6;;;;;;;10.9;100.0;101720;;;;
2022/03/14 04:40:00;;;;;;;5.0;4.6;;;;;;;10.9;100.0;101720;;;;
2022/03/14 04:41:00;;;;;;;5.0;4.6;;;;;;;10.8;100.0;101720;;;;
2022/03/14 04:42:00;;;;;;;5.0;4.6;;;;;;;10.8;100.0;101720;;;;
2022/03/14 04:43:04;;;;;;;5.0;4.6;;;;;;;10.8;100.0;101730;;;;
2022/03/14 04:44:00;;;;;;;5.0;4.6;;;;;;;10.8;100.0;101730;;;;
2022/03/14 04:45:00;;;;;;;5.0;4.6;;;;;;;10.6;100.0;101730;;;;
2022/03/14 04:46:00;;;;;;;5.0;4.6;;;;;;;10.6;100.0;101730;;;;
2022/03/14 04:47:00;;;;;;;5.0;4.6;;;;;;;10.8;100.0;101730;;;;
2022/03/14 04:48:00;;;;;;;5.0;4.6;;;;;;;10.8;100.0;101730;;;;
2022/03/14 04:49:00;;;;;;;5.0;4.6;;;;;;;10.7;100.0;101730;;;;
2022/03/14 04:50:00;;;;;;;5.6;5.2;;;;;;;10.7;100.0;101730;;;;
2022/03/14 04:51:00;;;;;;;5.6;5.2;;;;;;;10.7;100.0;101740;;;;
2022/03/14 04:52:00;;;;;;;5.6;5.2;;;;;;;10.7;100.0;101740;;;;
2022/03/14 04:53:00;;;;;;;5.6;5.2;;;;;;;10.6;100.0;101750;;;;
2022/03/14 04:54:00;;;;;;;5.6;5.2;;;;;;;10.6;100.0;101750;;;;
2022/03/14 04:55:00;;;;;;;5.6;5.2;;;;;;;10.6;100.0;101740;;;;
2022/03/14 04:56:00;;;;;;;5.6;5.2;;;;;;;10.6;100.0;101740;;;;
2022/03/14 04:57:00;;;;;;;5.6;5.2;;;;;;;10.5;100.0;101750;;;;
2022/03/14 04:58:00;;;;;;;5.6;5.2;;;;;;;10.5;100.0;101750;;;;
2022/03/14 04:59:00;;;;;;;5.6;5.2;;;;;;;10.5;100.0;101750;;;;
2022/03/14 05:00:00;;;;;;;5.6;5.2;;;;;;;10.5;100.0;101750;;;;
2022/03/14 05:01:00;;;;;;;5.6;5.2;;;;;;;10.4;100.0;101760;;;;
2022/03/14 05:02:00;;;;;;;5.6;5.2;;;;;;;10.4;100.0;101760;;;;
2022/03/14 05:03:04;;;;;;;5.6;5.2;;;;;;;10.6;100.0;101760;;;;
2022/03/14 05:04:00;;;;;;;5.6;5.2;;;;;;;10.6;100.0;101760;;;;
2022/03/14 05:05:00;;;;;;;5.6;5.2;;;;;;;10.4;100.0;101760;;;;
2022/03/14 05:06:00;;;;;;;5.6;5.2;;;;;;;10.4;100.0;101760;;;;
2022/03/14 05:07:00;;;;;;;5.6;5.2;;;;;;;10.6;100.0;101770;;;;
2022/03/14 05:08:00;;;;;;;5.6;5.2;;;;;;;10.6;100.0;101770;;;;
2022/03/14 05:09:00;;;;;;;5.6;5.2;;;;;;;10.5;100.0;101780;;;;
2022/03/14 05:10:00;;;;;;;6.7;6.1;;;;;;;10.5;100.0;101780;;;;
2022/03/14 05:11:00;;;;;;;6.7;6.1;;;;;;;10.6;100.0;101780;;;;
2022/03/14 05:12:00;;;;;;;6.7;6.1;;;;;;;10.6;100.0;101780;;;;
2022/03/14 05:13:01;;;;;;;6.7;6.1;;;;;;;10.5;100.0;101780;;;;
2022/03/14 05:14:00;;;;;;;6.7;6.1;;;;;;;10.5;100.0;101780;;;;
2022/03/14 05:15:00;;;;;;;6.7;6.1;;;;;;;10.4;100.0;101790;;;;
2022/03/14 05:16:00;;;;;;;6.7;6.1;;;;;;;10.4;100.0;101790;;;;
2022/03/14 05:17:00;;;;;;;6.7;6.1;;;;;;;10.4;100.0;101790;;;;
2022/03/14 05:18:01;;;;;;;6.7;6.1;;;;;;;10.4;100.0;101790;;;;
2022/03/14 05:19:00;;;;;;;6.7;6.1;;;;;;;10.5;100.0;101790;;;;
2022/03/14 05:20:00;;;;;;;6.7;6.1;;;;;;;10.5;100.0;101790;;;;
2022/03/14 05:21:00;;;;;;;6.7;6.1;;;;;;;10.4;100.0;101790;;;;
2022/03/14 05:22:00;;;;;;;6.7;6.1;;;;;;;10.4;100.0;101790;;;;
2022/03/14 05:23:00;;;;;;;6.7;6.1;;;;;;;10.4;100.0;101800;;;;
2022/03/14 05:24:00;;;;;;;6.7;6.1;;;;;;;10.4;100.0;101800;;;;
2022/03/14 05:25:00;;;;;;;6.7;6.1;;;;;;;10.4;100.0;101800;;;;
2022/03/14 05:26:00;;;;;;;6.7;6.1;;;;;;;10.4;100.0;101800;;;;
2022/03/14 05:27:00;;;;;;;6.7;6.1;;;;;;;10.3;100.0;101800;;;;
2022/03/14 05:28:00;;;;;;;6.7;6.1;;;;;;;10.3;100.0;101800;;;;
2022/03/14 05:29:00;;;;;;;6.7;6.1;;;;;;;10.4;100.0;101810;;;;
2022/03/14 05:30:00;;;;;;;7.5;6.9;;;;;;;10.4;100.0;101810;;;;
2022/03/14 05:31:00;;;;;;;7.5;6.9;;;;;;;10.5;100.0;101810;;;;
2022/03/14 05:32:00;;;;;;;7.5;6.9;;;;;;;10.5;100.0;101810;;;;
2022/03/14 05:33:00;;;;;;;7.5;6.9;;;;;;;10.5;100.0;101820;;;;
2022/03/14 05:34:00;;;;;;;7.5;6.9;;;;;;;10.5;100.0;101820;;;;
2022/03/14 05:35:00;;;;;;;7.5;6.9;;;;;;;10.4;100.0;101830;;;;
2022/03/14 05:36:01;;;;;;;7.5;6.9;;;;;;;10.4;100.0;101830;;;;
2022/03/14 05:37:00;;;;;;;7.5;6.9;;;;;;;10.4;100.0;101830;;;;
2022/03/14 05:38:00;;;;;;;7.5;6.9;;;;;;;10.4;100.0;101830;;;;
2022/03/14 05:39:00;;;;;;;7.5;6.9;;;;;;;10.4;100.0;101840;;;;
2022/03/14 05:40:00;;;;;;;7.5;6.9;;;;;;;10.4;100.0;101840;;;;
2022/03/14 05:41:00;;;;;;;7.5;6.9;;;;;;;10.4;100.0;101840;;;;
2022/03/14 05:42:01;;;;;;;7.5;6.9;;;;;;;10.4;100.0;101840;;;;
2022/03/14 05:43:04;;;;;;;7.5;6.9;;;;;;;10.4;100.0;101840;;;;
2022/03/14 05:44:00;;;;;;;7.5;6.9;;;;;;;10.4;100.0;101840;;;;
2022/03/14 05:45:00;;;;;;;7.5;6.9;;;;;;;10.4;100.0;101840;;;;
2022/03/14 05:46:00;;;;;;;7.5;6.9;;;;;;;10.4;100.0;101840;;;;
2022/03/14 05:47:00;;;;;;;7.5;6.9;;;;;;;10.4;100.0;101850;;;;
2022/03/14 05:48:00;;;;;;;7.5;6.9;;;;;;;10.4;100.0;101850;;;;
2022/03/14 05:49:00;;;;;;;7.5;6.9;;;;;;;10.4;100.0;101850;;;;
2022/03/14 05:50:00;;;;;;;8.0;7.3;;;;;;;10.4;100.0;101850;;;;
2022/03/14 05:51:00;;;;;;;8.0;7.3;;;;;;;10.4;100.0;101850;;;;
2022/03/14 05:52:00;;;;;;;8.0;7.3;;;;;;;10.4;100.0;101850;;;;
2022/03/14 05:53:01;;;;;;;8.0;7.3;;;;;;;10.4;100.0;101860;;;;
2022/03/14 05:54:00;;;;;;;8.0;7.3;;;;;;;10.4;100.0;101860;;;;
2022/03/14 05:55:00;;;;;;;8.0;7.3;;;;;;;10.4;100.0;101860;;;;
2022/03/14 05:56:00;;;;;;;8.0;7.3;;;;;;;10.4;100.0;101860;;;;
2022/03/14 05:57:00;;;;;;;8.0;7.3;;;;;;;10.3;100.0;101870;;;;
2022/03/14 05:58:00;;;;;;;8.0;7.3;;;;;;;10.3;100.0;101870;;;;
2022/03/14 05:59:01;;;;;;;8.0;7.3;;;;;;;10.3;100.0;101870;;;;
2022/03/14 06:00:00;;;;;;;8.0;7.3;;;;;;;10.3;100.0;101870;;;;
2022/03/14 06:01:00;;;;;;;8.0;7.3;;;;;;;10.2;100.0;101870;;;;
2022/03/14 06:02:00;;;;;;;8.0;7.3;;;;;;;10.2;100.0;101870;;;;
2022/03/14 06:03:00;;;;;;;8.0;7.3;;;;;;;10.4;100.0;101880;;;;
2022/03/14 06:04:00;;;;;;;8.0;7.3;;;;;;;10.4;100.0;101880;;;;
2022/03/14 06:05:00;;;;;;;8.0;7.3;;;;;;;10.3;100.0;101880;;;;
2022/03/14 06:06:00;;;;;;;8.0;7.3;;;;;;;10.3;100.0;101880;;;;
2022/03/14 06:07:00;;;;;;;8.0;7.3;;;;;;;10.2;100.0;101880;;;;
2022/03/14 06:08:00;;;;;;;8.0;7.3;;;;;;;10.2;100.0;101880;;;;
2022/03/14 06:09:00;;;;;;;8.0;7.3;;;;;;;10.3;100.0;101880;;;;
2022/03/14 06:10:00;;;;;;;8.7;7.9;;;;;;;10.3;100.0;101880;;;;
2022/03/14 06:11:00;;;;;;;8.7;7.9;;;;;;;10.3;100.0;101890;;;;
2022/03/14 06:12:00;;;;;;;8.7;7.9;;;;;;;10.3;100.0;101890;;;;
2022/03/14 06:13:00;;;;;;;8.7;7.9;;;;;;;10.3;100.0;101890;;;;
2022/03/14 06:14:00;;;;;;;8.7;7.9;;;;;;;10.3;100.0;101890;;;;
2022/03/14 06:15:08;;;;;;;8.7;7.9;;;;;;;10.3;100.0;101890;;;;
2022/03/14 06:16:00;;;;;;;8.7;7.9;;;;;;;10.3;100.0;101890;;;;
2022/03/14 06:17:00;;;;;;;8.7;7.9;;;;;;;10.2;100.0;101890;;;;
2022/03/14 06:18:00;;;;;;;8.7;7.9;;;;;;;10.2;100.0;101890;;;;
2022/03/14 06:19:00;;;;;;;8.7;7.9;;;;;;;10.2;100.0;101890;;;;
2022/03/14 06:20:00;;;;;;;8.7;7.9;;;;;;;10.2;100.0;101890;;;;
2022/03/14 06:21:00;;;;;;;8.7;7.9;;;;;;;10.2;100.0;101900;;;;
2022/03/14 06:22:00;;;;;;;8.7;7.9;;;;;;;10.2;100.0;101900;;;;